Time;durP1;ratioP1;P1;durP2;ratioP2;P2;SDS_P1;SDS_P2;PMS_P1;PMS_P2;Temp;Humidity;BMP_temperature;BMP_pressure;BME280_temperature;BME280_humidity;BME280_pressure;Samples;Min_cycle;Max_cycle;Signal;HPM_P1;HPM_P2
2021/12/22 00:00:59;;;;;;;10.05;5.70;;;-4.30;99.90;;;;;;5039095;28;20450;-66
2021/12/22 00:03:25;;;;;;;8.32;7.30;;;-4.30;99.90;;;;;;5032867;28;20036;-66
2021/12/22 00:05:52;;;;;;;12.73;7.53;;;-4.30;99.90;;;;;;5036820;28;20082;-66
2021/12/22 00:08:18;;;;;;;16.65;9.75;;;-4.30;99.90;;;;;;5033996;28;20044;-65
2021/12/22 00:10:49;;;;;;;9.88;7.85;;;-4.30;99.90;;;;;;5039783;28;20026;-66
2021/12/22 00:13:15;;;;;;;8.60;6.10;;;-4.50;99.90;;;;;;5038126;28;20491;-66
2021/12/22 00:15:41;;;;;;;15.95;9.00;;;-4.60;99.90;;;;;;5033733;28;20032;-66
2021/12/22 00:18:06;;;;;;;10.07;7.28;;;-4.50;99.90;;;;;;5040046;28;20047;-66
2021/12/22 00:20:32;;;;;;;12.18;6.80;;;-4.60;99.90;;;;;;5036110;28;20127;-65
2021/12/22 00:22:58;;;;;;;11.80;8.02;;;-4.60;99.90;;;;;;5040634;28;22458;-66
2021/12/22 00:25:25;;;;;;;11.65;7.88;;;-4.60;99.90;;;;;;5035062;28;20496;-65
2021/12/22 00:27:57;;;;;;;10.32;6.57;;;-4.60;99.90;;;;;;5034369;28;20048;-65
2021/12/22 00:30:24;;;;;;;10.35;8.38;;;-4.60;99.90;;;;;;5032281;28;20039;-66
2021/12/22 00:32:52;;;;;;;6.25;5.20;;;-4.60;99.90;;;;;;5041196;28;20037;-66
2021/12/22 00:35:26;;;;;;;8.77;5.38;;;-4.70;99.90;;;;;;5030794;28;20045;-66
2021/12/22 00:37:52;;;;;;;7.53;6.65;;;-4.70;99.90;;;;;;5045753;28;20086;-66
2021/12/22 00:40:18;;;;;;;9.15;7.35;;;-4.70;99.90;;;;;;5029496;28;20033;-66
2021/12/22 00:42:43;;;;;;;13.20;8.68;;;-4.60;99.90;;;;;;5036200;28;20033;-66
2021/12/22 00:45:10;;;;;;;8.02;6.82;;;-4.60;99.90;;;;;;5028235;28;20032;-66
2021/12/22 00:47:36;;;;;;;9.27;8.38;;;-4.60;99.90;;;;;;5031601;28;20029;-66
2021/12/22 00:50:04;;;;;;;12.55;7.47;;;-4.50;99.90;;;;;;5040027;28;20028;-66
2021/12/22 00:52:30;;;;;;;11.43;7.75;;;-4.60;99.90;;;;;;5029181;28;20029;-65
2021/12/22 00:54:56;;;;;;;11.23;6.38;;;-4.50;99.90;;;;;;5048523;28;20083;-65
2021/12/22 00:57:22;;;;;;;9.07;7.13;;;-4.50;99.90;;;;;;5037182;28;20037;-66
2021/12/22 00:59:48;;;;;;;8.35;6.15;;;-4.50;99.90;;;;;;5033782;28;20037;-66
2021/12/22 01:02:17;;;;;;;8.13;6.78;;;-4.60;99.90;;;;;;5039445;28;20048;-66
2021/12/22 01:04:43;;;;;;;9.25;5.97;;;-4.50;99.90;;;;;;5035966;28;20566;-66
2021/12/22 01:07:10;;;;;;;11.15;8.60;;;-4.60;99.90;;;;;;5032232;28;20118;-65
2021/12/22 01:09:36;;;;;;;8.63;6.47;;;-4.60;99.90;;;;;;5035138;28;20037;-66
2021/12/22 01:12:04;;;;;;;11.80;6.88;;;-4.70;99.90;;;;;;5039419;28;20029;-66
2021/12/22 01:14:29;;;;;;;12.50;6.90;;;-4.60;99.90;;;;;;5040464;28;20026;-66
2021/12/22 01:17:00;;;;;;;6.45;5.82;;;-4.50;99.90;;;;;;5046239;28;20093;-66
2021/12/22 01:19:35;;;;;;;16.35;6.93;;;-4.60;99.90;;;;;;5030158;28;20423;-66
2021/12/22 01:22:17;;;;;;;13.00;7.93;;;-4.60;99.90;;;;;;5030568;28;20025;-66
2021/12/22 01:24:47;;;;;;;14.77;8.07;;;-4.60;99.90;;;;;;5035593;28;20059;-66
2021/12/22 01:27:15;;;;;;;9.73;6.88;;;-4.70;99.90;;;;;;5034128;28;20037;-66
2021/12/22 01:29:40;;;;;;;6.65;5.60;;;-4.70;99.90;;;;;;5034050;28;20029;-66
2021/12/22 01:32:09;;;;;;;14.18;6.50;;;-4.70;99.90;;;;;;5032995;28;20033;-66
2021/12/22 01:34:35;;;;;;;17.10;8.38;;;-4.70;99.90;;;;;;5037025;28;20128;-66
2021/12/22 01:37:01;;;;;;;19.85;7.90;;;-4.70;99.90;;;;;;5059373;28;20033;-66
2021/12/22 01:39:27;;;;;;;12.40;7.55;;;-4.80;99.90;;;;;;5040632;28;20036;-65
2021/12/22 01:41:53;;;;;;;9.38;6.63;;;-4.80;99.90;;;;;;5030432;28;20043;-65
2021/12/22 01:44:34;;;;;;;15.45;7.43;;;-4.70;99.90;;;;;;5037803;28;20112;-66
2021/12/22 01:49:53;;;;;;;14.68;7.68;;;-4.90;99.90;;;;;;5035668;28;20041;-66
2021/12/22 01:52:20;;;;;;;14.00;6.65;;;-4.80;99.90;;;;;;5036987;28;20161;-65
2021/12/22 01:54:48;;;;;;;16.05;6.22;;;-4.80;99.90;;;;;;5041413;28;20024;-65
2021/12/22 01:57:14;;;;;;;12.77;6.03;;;-4.80;99.90;;;;;;5042168;28;20036;-65
2021/12/22 01:59:41;;;;;;;15.27;8.38;;;-4.80;99.90;;;;;;5036466;28;20231;-65
2021/12/22 02:02:09;;;;;;;12.63;7.07;;;-4.90;99.90;;;;;;5059644;28;20033;-66
2021/12/22 02:04:38;;;;;;;10.35;8.48;;;-5.00;99.90;;;;;;5032882;28;20105;-66
2021/12/22 02:07:04;;;;;;;;;;;-5.10;99.90;;;;;;5035538;28;21491;-65
2021/12/22 02:12:14;;;;;;;10.45;6.18;;;-5.00;99.90;;;;;;5039872;28;20059;-65
2021/12/22 02:14:41;;;;;;;27.27;10.20;;;-5.20;99.90;;;;;;5036740;28;21518;-66
2021/12/22 02:17:10;;;;;;;15.80;7.70;;;-5.20;99.90;;;;;;5036432;28;20055;-65
2021/12/22 02:19:39;;;;;;;9.57;6.70;;;-5.10;99.90;;;;;;5039690;28;20062;-66
2021/12/22 02:22:12;;;;;;;6.88;5.72;;;-5.20;99.90;;;;;;5032491;28;20069;-66
2021/12/22 02:24:38;;;;;;;15.07;8.73;;;-5.20;99.90;;;;;;5039971;28;20036;-66
2021/12/22 02:27:14;;;;;;;11.57;8.00;;;-5.10;99.90;;;;;;5035603;28;20037;-66
2021/12/22 02:29:41;;;;;;;15.20;6.80;;;-5.20;99.90;;;;;;5036146;28;20094;-66
2021/12/22 02:32:14;;;;;;;14.27;7.30;;;-5.20;99.90;;;;;;5028346;28;20153;-66
2021/12/22 02:34:46;;;;;;;7.78;4.80;;;-5.20;99.90;;;;;;5031465;28;20123;-66
2021/12/22 02:37:16;;;;;;;12.52;8.13;;;-5.20;99.90;;;;;;5030769;28;20033;-66
2021/12/22 02:39:47;;;;;;;12.13;6.60;;;-5.30;99.90;;;;;;5034686;28;20029;-67
2021/12/22 02:42:13;;;;;;;11.48;6.72;;;-5.30;99.90;;;;;;5029872;28;20040;-66
2021/12/22 02:44:39;;;;;;;10.85;6.55;;;-5.30;99.90;;;;;;5032428;28;20048;-66
2021/12/22 02:47:26;;;;;;;12.82;8.65;;;-5.30;99.90;;;;;;5047098;28;20037;-66
2021/12/22 02:49:52;;;;;;;14.53;6.13;;;-5.30;99.90;;;;;;5044572;28;20995;-66
2021/12/22 02:52:19;;;;;;;8.50;6.28;;;-5.40;99.90;;;;;;5056785;28;20167;-67
2021/12/22 02:54:53;;;;;;;11.70;6.07;;;-5.40;99.90;;;;;;5038546;28;20471;-66
2021/12/22 02:57:32;;;;;;;9.93;8.48;;;-5.40;99.90;;;;;;5034262;28;21002;-65
2021/12/22 03:00:46;;;;;;;10.20;5.95;;;-5.30;99.90;;;;;;5036118;28;21014;-66
2021/12/22 03:05:22;;;;;;;8.07;5.65;;;-5.30;99.90;;;;;;5035661;28;20029;-66
2021/12/22 03:07:48;;;;;;;9.65;8.05;;;-5.30;99.90;;;;;;5028297;28;20026;-65
2021/12/22 03:10:17;;;;;;;8.02;5.45;;;-5.40;99.90;;;;;;5028218;28;20451;-65
2021/12/22 03:12:46;;;;;;;7.70;4.90;;;-5.40;99.90;;;;;;5032203;28;20033;-66
2021/12/22 03:15:13;;;;;;;12.85;6.93;;;-5.50;99.90;;;;;;5028089;28;20912;-66
2021/12/22 03:17:40;;;;;;;10.00;6.47;;;-5.50;99.90;;;;;;5031077;28;20122;-66
2021/12/22 03:20:08;;;;;;;17.75;7.47;;;-5.60;99.90;;;;;;5030530;28;20065;-66
2021/12/22 03:22:34;;;;;;;11.73;7.05;;;-5.80;99.90;;;;;;5028567;28;20057;-65
2021/12/22 03:25:00;;;;;;;9.18;6.78;;;-5.80;99.90;;;;;;5028380;28;20112;-65
2021/12/22 03:27:26;;;;;;;13.18;6.95;;;-5.80;99.90;;;;;;5031250;28;20033;-66
2021/12/22 03:29:53;;;;;;;13.45;7.40;;;-5.80;99.90;;;;;;5031600;28;20047;-66
2021/12/22 03:32:19;;;;;;;8.93;7.43;;;-5.70;99.90;;;;;;5029300;28;20096;-65
2021/12/22 03:34:44;;;;;;;7.53;4.40;;;-5.70;99.90;;;;;;5028954;28;20183;-65
2021/12/22 03:37:11;;;;;;;8.70;6.90;;;-5.60;99.90;;;;;;5030446;28;22517;-65
2021/12/22 03:39:38;;;;;;;7.65;5.28;;;-5.60;99.90;;;;;;5030689;28;20427;-65
2021/12/22 03:42:06;;;;;;;4.18;3.83;;;-5.60;99.90;;;;;;5030314;28;20033;-66
2021/12/22 03:44:32;;;;;;;10.63;7.05;;;-5.60;99.90;;;;;;5030763;28;20479;-65
2021/12/22 03:47:00;;;;;;;9.10;4.88;;;-5.50;99.90;;;;;;5027976;28;20148;-66
2021/12/22 03:49:26;;;;;;;11.27;5.50;;;-5.50;99.90;;;;;;5033140;28;20489;-66
2021/12/22 03:51:52;;;;;;;10.07;6.95;;;-5.50;99.90;;;;;;5042413;28;20067;-66
2021/12/22 03:54:17;;;;;;;8.30;4.95;;;-5.50;99.90;;;;;;5032473;28;20119;-66
2021/12/22 03:56:43;;;;;;;12.20;6.20;;;-5.70;99.90;;;;;;5034789;28;20056;-66
2021/12/22 03:59:09;;;;;;;6.30;5.72;;;-5.80;99.90;;;;;;5029858;28;20041;-66
2021/12/22 04:01:35;;;;;;;9.40;7.00;;;-5.80;99.90;;;;;;5035739;28;20373;-66
2021/12/22 04:04:08;;;;;;;7.95;6.38;;;-5.70;99.90;;;;;;5035101;28;20044;-66
2021/12/22 04:06:33;;;;;;;5.90;4.93;;;-5.80;99.90;;;;;;5031216;28;20079;-66
2021/12/22 04:08:59;;;;;;;13.45;5.20;;;-5.80;99.90;;;;;;5031959;28;20124;-66
2021/12/22 04:11:25;;;;;;;9.68;4.72;;;-5.90;99.90;;;;;;5036427;28;20094;-66
2021/12/22 04:13:51;;;;;;;5.57;4.93;;;-5.80;99.90;;;;;;5035020;28;20948;-66
2021/12/22 04:16:16;;;;;;;11.95;7.57;;;-5.80;99.90;;;;;;5034434;28;20056;-66
2021/12/22 04:18:42;;;;;;;6.28;5.10;;;-5.90;99.90;;;;;;5040763;28;20060;-66
2021/12/22 04:21:08;;;;;;;6.45;4.03;;;-5.80;99.90;;;;;;5035599;28;20037;-66
2021/12/22 04:23:33;;;;;;;8.10;5.45;;;-5.80;99.90;;;;;;5043876;28;20376;-66
2021/12/22 04:25:59;;;;;;;9.48;5.00;;;-5.80;99.90;;;;;;5033798;28;20032;-66
2021/12/22 04:28:25;;;;;;;9.85;5.95;;;-6.10;99.90;;;;;;5032232;28;20041;-65
2021/12/22 04:30:50;;;;;;;7.50;6.50;;;-6.10;99.90;;;;;;5039339;28;20461;-65
2021/12/22 04:33:19;;;;;;;13.68;6.60;;;-6.10;99.90;;;;;;5031758;28;20078;-66
2021/12/22 04:35:45;;;;;;;;;;;-6.00;99.90;;;;;;5037309;28;20151;-66
2021/12/22 04:38:11;;;;;;;11.02;6.22;;;-6.00;99.90;;;;;;5031833;28;19928;-66
2021/12/22 04:40:37;;;;;;;9.70;5.57;;;-6.00;99.90;;;;;;5039286;28;20092;-66
2021/12/22 04:43:03;;;;;;;10.02;7.43;;;-6.00;99.90;;;;;;5041764;28;20047;-66
2021/12/22 04:45:29;;;;;;;4.60;4.20;;;-6.00;99.90;;;;;;5032305;28;20037;-65
2021/12/22 04:47:57;;;;;;;12.25;5.18;;;-6.00;99.90;;;;;;5041230;28;20048;-66
2021/12/22 04:50:23;;;;;;;5.93;4.25;;;-6.00;99.90;;;;;;5040945;28;20033;-66
2021/12/22 04:52:58;;;;;;;9.93;5.72;;;-6.10;99.90;;;;;;5041286;28;20120;-66
2021/12/22 04:55:25;;;;;;;7.70;4.95;;;-6.10;99.90;;;;;;5033332;28;20414;-65
2021/12/22 04:57:52;;;;;;;4.10;3.70;;;-6.10;99.90;;;;;;5030109;28;20033;-66
2021/12/22 05:00:18;;;;;;;8.45;5.25;;;-6.10;99.90;;;;;;5034523;28;20068;-66
2021/12/22 05:02:44;;;;;;;8.25;5.82;;;-6.20;99.90;;;;;;5031180;28;20037;-66
2021/12/22 05:05:10;;;;;;;9.02;6.05;;;-6.10;99.90;;;;;;5029950;28;20037;-66
2021/12/22 05:07:35;;;;;;;6.65;5.85;;;-6.10;99.90;;;;;;5032429;28;20048;-66
2021/12/22 05:10:01;;;;;;;6.88;4.90;;;-6.30;99.90;;;;;;5031757;28;20092;-66
2021/12/22 05:12:27;;;;;;;4.85;3.45;;;-6.40;99.90;;;;;;5030022;28;20017;-66
2021/12/22 05:14:53;;;;;;;5.07;4.65;;;-6.50;99.90;;;;;;5033710;28;20044;-66
2021/12/22 05:17:25;;;;;;;10.13;7.03;;;-6.60;99.90;;;;;;5031261;28;20416;-66
2021/12/22 05:19:50;;;;;;;7.50;6.45;;;-6.50;99.90;;;;;;5030708;28;20037;-66
2021/12/22 05:22:16;;;;;;;9.05;6.20;;;-6.40;99.90;;;;;;5035257;28;20044;-67
2021/12/22 05:24:41;;;;;;;12.25;4.97;;;-6.30;99.90;;;;;;5034874;28;20190;-65
2021/12/22 05:27:08;;;;;;;6.63;5.93;;;-6.30;99.90;;;;;;5034379;28;20060;-66
2021/12/22 05:29:34;;;;;;;8.55;4.68;;;-6.30;99.90;;;;;;5037473;28;20107;-66
2021/12/22 05:32:03;;;;;;;11.18;7.03;;;-6.30;99.90;;;;;;5029983;28;20078;-65
2021/12/22 05:34:29;;;;;;;13.30;6.22;;;-6.30;99.90;;;;;;5041790;28;20359;-66
2021/12/22 05:36:55;;;;;;;11.85;5.32;;;-6.30;99.90;;;;;;5029775;28;20037;-66
2021/12/22 05:39:20;;;;;;;9.45;6.60;;;-6.40;99.90;;;;;;5037862;28;20037;-66
2021/12/22 05:41:46;;;;;;;7.25;6.20;;;-6.30;99.90;;;;;;5042137;28;20068;-66
2021/12/22 05:44:12;;;;;;;11.07;7.50;;;-6.20;99.90;;;;;;5038702;28;20067;-66
2021/12/22 05:46:38;;;;;;;17.55;8.18;;;-6.20;99.90;;;;;;5033616;28;20503;-66
2021/12/22 05:49:03;;;;;;;11.20;6.25;;;-6.20;99.90;;;;;;5034251;28;20040;-66
2021/12/22 05:51:32;;;;;;;7.45;5.65;;;-6.30;99.90;;;;;;5039243;28;20044;-66
2021/12/22 05:53:58;;;;;;;9.48;6.43;;;-6.20;99.90;;;;;;5035992;28;20048;-66
2021/12/22 05:56:25;;;;;;;5.78;4.70;;;-6.20;99.90;;;;;;5039737;28;20123;-66
2021/12/22 05:58:51;;;;;;;14.88;7.32;;;-6.30;99.90;;;;;;5030546;28;21547;-66
2021/12/22 06:01:17;;;;;;;13.75;5.93;;;-6.20;99.90;;;;;;5028326;28;20045;-66
2021/12/22 06:03:42;;;;;;;8.88;7.55;;;-6.30;99.90;;;;;;5035244;28;20443;-66
2021/12/22 06:06:10;;;;;;;15.40;6.53;;;-6.30;99.90;;;;;;5036308;28;20025;-66
2021/12/22 06:08:36;;;;;;;11.60;7.18;;;-6.30;99.90;;;;;;5033821;28;20051;-66
2021/12/22 06:11:02;;;;;;;7.80;5.53;;;-6.30;99.90;;;;;;5038274;28;20032;-66
2021/12/22 06:13:27;;;;;;;17.05;9.13;;;-6.30;99.90;;;;;;5031188;28;20490;-66
2021/12/22 06:15:53;;;;;;;14.98;7.60;;;-6.30;99.90;;;;;;5033798;28;20033;-65
2021/12/22 06:18:19;;;;;;;10.88;4.95;;;-6.20;99.90;;;;;;5035395;28;20460;-65
2021/12/22 06:20:44;;;;;;;7.70;5.53;;;-6.20;99.90;;;;;;5028901;28;20115;-65
2021/12/22 06:23:11;;;;;;;13.73;6.63;;;-6.20;99.90;;;;;;5039039;28;20025;-65
2021/12/22 06:25:37;;;;;;;13.57;7.57;;;-6.20;99.90;;;;;;5034577;28;20045;-65
2021/12/22 06:28:03;;;;;;;18.98;11.85;;;-6.20;99.90;;;;;;5031440;28;20056;-66
2021/12/22 06:30:29;;;;;;;10.80;7.45;;;-6.20;99.90;;;;;;5029910;28;20115;-66
2021/12/22 06:32:55;;;;;;;8.93;6.57;;;-6.20;99.90;;;;;;5036577;28;20041;-66
2021/12/22 06:35:21;;;;;;;9.45;7.05;;;-6.20;99.90;;;;;;5030754;28;20060;-66
2021/12/22 06:37:47;;;;;;;10.40;5.70;;;-6.20;99.90;;;;;;5030172;28;20171;-66
2021/12/22 06:40:15;;;;;;;8.18;5.28;;;-6.20;99.90;;;;;;5035604;28;20943;-65
2021/12/22 06:42:41;;;;;;;5.95;4.00;;;-6.20;99.90;;;;;;5034543;28;20048;-65
2021/12/22 06:45:09;;;;;;;10.63;6.10;;;-6.10;99.90;;;;;;5029854;28;20021;-66
2021/12/22 06:47:35;;;;;;;9.25;6.70;;;-6.10;99.90;;;;;;5032165;28;20045;-66
2021/12/22 06:50:01;;;;;;;8.27;5.97;;;-6.10;99.90;;;;;;5039407;28;20111;-66
2021/12/22 06:52:27;;;;;;;9.82;6.10;;;-6.10;99.90;;;;;;5026988;28;20053;-66
2021/12/22 06:54:53;;;;;;;8.32;5.75;;;-6.20;99.90;;;;;;5033030;28;20172;-66
2021/12/22 06:57:20;;;;;;;10.30;7.30;;;-6.30;99.90;;;;;;5036015;28;20036;-66
2021/12/22 06:59:46;;;;;;;7.13;4.55;;;-6.20;99.90;;;;;;5035416;28;20045;-66
2021/12/22 07:02:12;;;;;;;9.30;7.00;;;-6.20;99.90;;;;;;5029619;28;20037;-65
2021/12/22 07:04:38;;;;;;;7.47;5.72;;;-6.20;99.90;;;;;;5034949;28;20354;-65
2021/12/22 07:07:04;;;;;;;9.25;5.60;;;-6.20;99.90;;;;;;5026619;28;20048;-66
2021/12/22 07:09:29;;;;;;;10.00;4.93;;;-6.20;99.90;;;;;;5032886;28;20036;-65
2021/12/22 07:11:55;;;;;;;13.45;6.40;;;-6.20;99.90;;;;;;5037583;28;20029;-65
2021/12/22 07:14:21;;;;;;;11.60;6.97;;;-6.20;99.90;;;;;;5051650;28;20032;-65
2021/12/22 07:16:47;;;;;;;6.75;6.05;;;-6.30;99.90;;;;;;5050257;28;20032;-65
2021/12/22 07:19:13;;;;;;;7.05;5.32;;;-6.30;99.90;;;;;;5042658;28;20032;-65
2021/12/22 07:21:39;;;;;;;8.55;7.60;;;-6.20;99.90;;;;;;5032003;28;20033;-66
2021/12/22 07:24:05;;;;;;;10.10;6.28;;;-6.20;99.90;;;;;;5034253;28;20040;-66
2021/12/22 07:26:31;;;;;;;8.45;5.82;;;-6.20;99.90;;;;;;5030772;28;20420;-65
2021/12/22 07:28:57;;;;;;;10.38;8.98;;;-6.20;99.90;;;;;;5035767;28;20041;-65
2021/12/22 07:31:23;;;;;;;10.52;7.35;;;-6.30;99.90;;;;;;5026227;28;20045;-66
2021/12/22 07:34:21;;;;;;;11.43;5.95;;;-6.30;99.90;;;;;;5027831;28;20041;-65
2021/12/22 07:37:08;;;;;;;19.90;6.55;;;-6.30;99.90;;;;;;5021500;28;20053;-66
2021/12/22 07:39:35;;;;;;;12.63;7.88;;;-6.30;99.90;;;;;;5038400;28;20582;-66
2021/12/22 07:42:00;;;;;;;15.23;7.00;;;-6.30;99.90;;;;;;5030223;28;20116;-66
2021/12/22 07:44:26;;;;;;;13.25;6.45;;;-6.20;99.90;;;;;;5032961;28;20083;-65
2021/12/22 07:46:51;;;;;;;7.63;6.03;;;-6.20;99.90;;;;;;5040440;28;20465;-66
2021/12/22 07:49:17;;;;;;;7.05;5.93;;;-6.20;99.90;;;;;;5026335;28;20045;-65
2021/12/22 07:51:43;;;;;;;10.05;7.32;;;-6.10;99.90;;;;;;5026064;28;20040;-65
2021/12/22 07:54:09;;;;;;;8.30;5.95;;;-6.10;99.90;;;;;;5029419;28;20018;-65
2021/12/22 07:56:34;;;;;;;9.85;6.95;;;-6.10;99.90;;;;;;5028674;28;20098;-66
2021/12/22 07:59:00;;;;;;;12.27;6.72;;;-6.10;99.90;;;;;;5030138;28;20041;-66
2021/12/22 08:01:26;;;;;;;9.38;6.18;;;-6.00;99.90;;;;;;5036359;28;20048;-66
2021/12/22 08:03:51;;;;;;;12.00;8.43;;;-6.10;99.90;;;;;;5030539;28;20037;-66
2021/12/22 08:06:17;;;;;;;7.13;6.00;;;-6.10;99.90;;;;;;5038236;28;20059;-66
2021/12/22 08:08:43;;;;;;;8.15;6.20;;;-6.10;99.90;;;;;;5032787;28;20048;-66
2021/12/22 08:11:09;;;;;;;8.40;7.32;;;-6.20;99.90;;;;;;5033036;28;20038;-66
2021/12/22 08:13:35;;;;;;;10.57;7.25;;;-6.10;99.90;;;;;;5041772;28;20067;-66
2021/12/22 08:16:01;;;;;;;12.48;7.97;;;-6.10;99.90;;;;;;5034298;28;20618;-65
2021/12/22 08:18:27;;;;;;;12.05;6.57;;;-6.00;99.90;;;;;;5039424;28;20029;-65
2021/12/22 08:20:53;;;;;;;13.80;7.50;;;-6.00;99.90;;;;;;5063294;28;20044;-65
2021/12/22 08:23:19;;;;;;;9.68;6.38;;;-6.00;99.90;;;;;;5032661;28;20037;-65
2021/12/22 08:25:46;;;;;;;12.88;8.65;;;-6.00;99.90;;;;;;5038931;28;20040;-65
2021/12/22 08:28:11;;;;;;;9.18;7.43;;;-5.90;99.90;;;;;;5036870;28;20029;-65
2021/12/22 08:30:38;;;;;;;10.55;7.55;;;-5.90;99.90;;;;;;5032662;28;20601;-65
2021/12/22 08:33:09;;;;;;;9.27;7.15;;;-5.80;99.90;;;;;;5033891;28;20441;-65
2021/12/22 08:38:50;;;;;;;15.82;8.82;;;-5.70;99.90;;;;;;5027676;28;20040;-65
2021/12/22 08:41:09;;;;;;;14.75;8.00;;;-5.70;99.90;;;;;;5026018;28;20028;-66
2021/12/22 08:43:34;;;;;;;8.60;6.82;;;-5.70;99.90;;;;;;5035929;28;20038;-66
2021/12/22 08:46:00;;;;;;;13.25;7.90;;;-5.60;99.90;;;;;;5032156;28;20561;-66
2021/12/22 08:48:26;;;;;;;11.48;7.88;;;-5.60;99.90;;;;;;5031926;28;20063;-66
2021/12/22 08:50:51;;;;;;;9.10;7.75;;;-5.50;99.90;;;;;;5033681;28;20129;-66
2021/12/22 08:53:17;;;;;;;12.68;7.68;;;-5.50;99.90;;;;;;5034473;28;21388;-66
2021/12/22 08:55:43;;;;;;;10.32;7.63;;;-5.50;99.90;;;;;;5029983;28;20049;-66
2021/12/22 08:58:08;;;;;;;11.05;7.80;;;-5.40;99.90;;;;;;5029319;28;20581;-66
2021/12/22 09:00:36;;;;;;;12.63;7.43;;;-5.40;99.90;;;;;;5029527;28;20542;-66
2021/12/22 09:03:02;;;;;;;16.35;8.52;;;-5.30;99.90;;;;;;5031154;28;20151;-66
2021/12/22 09:05:28;;;;;;;11.60;8.90;;;-5.30;99.90;;;;;;5035455;28;20040;-66
2021/12/22 09:07:53;;;;;;;11.05;8.80;;;-5.20;99.90;;;;;;5044591;28;20037;-66
2021/12/22 09:10:19;;;;;;;9.23;6.63;;;-5.10;99.90;;;;;;5039733;28;20510;-66
2021/12/22 09:12:44;;;;;;;8.40;7.30;;;-5.10;99.90;;;;;;5038277;28;20032;-66
2021/12/22 09:15:10;;;;;;;12.98;8.93;;;-5.00;99.90;;;;;;5045285;28;20068;-66
2021/12/22 09:17:36;;;;;;;20.95;12.48;;;-5.00;99.90;;;;;;5041203;28;20090;-66
2021/12/22 09:20:02;;;;;;;16.98;10.65;;;-4.90;99.90;;;;;;5034173;28;20477;-66
2021/12/22 09:22:28;;;;;;;15.32;8.60;;;-4.90;99.90;;;;;;5036352;28;20718;-66
2021/12/22 09:24:54;;;;;;;20.92;13.00;;;-4.80;99.90;;;;;;5040880;28;20118;-66
2021/12/22 09:27:19;;;;;;;19.77;11.35;;;-4.80;99.90;;;;;;5036622;28;20025;-66
2021/12/22 09:29:45;;;;;;;9.45;7.28;;;-4.70;99.90;;;;;;5031543;28;20801;-66
2021/12/22 09:32:16;;;;;;;15.40;8.50;;;-4.60;99.90;;;;;;5032603;28;20065;-67
2021/12/22 09:34:46;;;;;;;11.88;7.07;;;-4.60;99.90;;;;;;5029110;28;20128;-66
2021/12/22 09:37:12;;;;;;;13.98;8.15;;;-4.50;99.90;;;;;;5029609;28;20502;-66
2021/12/22 09:39:38;;;;;;;15.13;10.05;;;-4.40;99.90;;;;;;5036846;28;20039;-66
2021/12/22 09:42:05;;;;;;;18.63;11.70;;;-4.40;99.90;;;;;;5033838;28;20805;-66
2021/12/22 09:44:33;;;;;;;14.70;10.63;;;-4.40;99.90;;;;;;5037122;28;20025;-66
2021/12/22 09:46:59;;;;;;;13.85;8.63;;;-4.30;99.90;;;;;;5029476;28;20039;-66
2021/12/22 09:49:58;;;;;;;23.38;11.35;;;-4.20;99.90;;;;;;5030045;28;20492;-67
2021/12/22 09:52:23;;;;;;;18.15;9.38;;;-4.20;99.90;;;;;;5034077;28;20044;-66
2021/12/22 09:54:54;;;;;;;18.25;11.68;;;-4.20;99.90;;;;;;5028894;28;20072;-66
2021/12/22 09:57:21;;;;;;;10.63;7.38;;;-4.10;99.90;;;;;;5030997;28;20041;-66
2021/12/22 09:59:49;;;;;;;17.58;10.63;;;-4.00;99.90;;;;;;5030005;28;20115;-66
2021/12/22 10:02:16;;;;;;;22.30;12.52;;;-4.00;99.90;;;;;;5030492;28;20083;-66
2021/12/22 10:04:42;;;;;;;15.45;9.85;;;-3.90;99.90;;;;;;5035705;28;20025;-66
2021/12/22 10:07:10;;;;;;;11.57;7.75;;;-3.90;99.90;;;;;;5042118;28;20039;-66
2021/12/22 10:09:44;;;;;;;21.70;11.43;;;-3.80;99.90;;;;;;5034526;28;20078;-67
2021/12/22 10:12:18;;;;;;;17.00;10.63;;;-3.80;99.90;;;;;;5041657;28;20063;-66
2021/12/22 10:14:57;;;;;;;19.25;9.40;;;-3.80;99.90;;;;;;5034838;28;20032;-67
2021/12/22 10:17:30;;;;;;;15.63;10.07;;;-3.70;99.90;;;;;;5037031;28;20045;-66
2021/12/22 10:19:59;;;;;;;16.83;8.15;;;-3.60;99.90;;;;;;5034414;28;20040;-67
2021/12/22 10:22:49;;;;;;;16.25;9.85;;;-3.60;99.90;;;;;;5039666;28;20040;-66
2021/12/22 10:25:18;;;;;;;15.95;8.43;;;-3.60;99.90;;;;;;5036981;28;20041;-67
2021/12/22 10:28:07;;;;;;;16.25;9.07;;;-3.60;99.90;;;;;;5030686;28;20044;-66
2021/12/22 10:30:36;;;;;;;;;;;-3.50;99.90;;;;;;5037430;28;20899;-66
2021/12/22 10:33:28;;;;;;;17.50;9.02;;;-3.50;99.90;;;;;;5031545;28;19909;-66
2021/12/22 10:36:13;;;;;;;21.05;8.65;;;-3.40;99.90;;;;;;5032242;28;20032;-66
2021/12/22 10:38:39;;;;;;;13.48;8.20;;;-3.40;99.90;;;;;;5033137;28;20076;-67
2021/12/22 10:41:10;;;;;;;18.10;9.88;;;-3.30;99.90;;;;;;5030450;28;20496;-66
2021/12/22 10:43:44;;;;;;;17.48;10.15;;;-3.30;99.90;;;;;;5033641;28;20093;-66
2021/12/22 10:46:16;;;;;;;13.38;8.88;;;-3.30;99.90;;;;;;5031920;28;20033;-67
2021/12/22 10:51:32;;;;;;;13.10;7.68;;;-3.20;99.90;;;;;;5037761;28;20348;-67
2021/12/22 10:53:59;;;;;;;15.30;8.98;;;-3.10;99.90;;;;;;5039127;28;20049;-67
2021/12/22 10:56:38;;;;;;;17.27;9.02;;;-3.10;99.90;;;;;;5038939;28;20111;-67
2021/12/22 10:59:12;;;;;;;11.55;7.00;;;-3.00;99.90;;;;;;5039733;28;20507;-67
2021/12/22 11:02:06;;;;;;;12.68;9.18;;;-3.00;99.90;;;;;;5034506;28;20399;-67
2021/12/22 11:04:34;;;;;;;13.27;8.82;;;-3.00;99.90;;;;;;5035991;28;20095;-66
2021/12/22 11:07:09;;;;;;;14.68;9.45;;;-3.00;99.90;;;;;;5039030;28;20396;-67
2021/12/22 11:09:36;;;;;;;19.80;10.20;;;-3.00;99.90;;;;;;5039284;28;20032;-66
2021/12/22 11:12:04;;;;;;;15.48;10.15;;;-3.00;99.90;;;;;;5031025;28;20091;-66
2021/12/22 11:14:38;;;;;;;18.38;9.35;;;-2.90;99.90;;;;;;5036402;28;20085;-67
2021/12/22 11:17:15;;;;;;;16.27;10.25;;;-2.90;99.90;;;;;;5033032;28;20044;-69
2021/12/22 11:20:04;;;;;;;20.88;9.60;;;-3.00;99.90;;;;;;5033632;28;20113;-69
2021/12/22 11:22:39;;;;;;;21.42;11.88;;;-2.90;99.90;;;;;;5033314;28;20130;-69
2021/12/22 11:25:07;;;;;;;17.23;9.50;;;-2.80;99.90;;;;;;5048265;28;20491;-69
2021/12/22 11:27:34;;;;;;;18.25;9.50;;;-2.90;99.90;;;;;;5030656;28;20041;-69
2021/12/22 11:30:00;;;;;;;11.93;8.15;;;-2.80;99.90;;;;;;5034985;28;20037;-69
2021/12/22 11:32:28;;;;;;;16.33;9.90;;;-2.80;99.90;;;;;;5034466;28;20049;-69
2021/12/22 11:34:55;;;;;;;;;;;-2.80;99.90;;;;;;5030078;28;20571;-69
2021/12/22 11:37:22;;;;;;;14.07;8.35;;;-2.80;99.90;;;;;;5032852;28;19912;-70
2021/12/22 11:39:49;;;;;;;13.63;8.98;;;-2.70;99.90;;;;;;5032718;28;20733;-69
2021/12/22 11:42:16;;;;;;;22.67;12.70;;;-2.70;99.90;;;;;;5034247;28;20151;-69
2021/12/22 11:44:48;;;;;;;19.80;10.43;;;-2.70;99.90;;;;;;5031916;28;20771;-69
2021/12/22 11:47:18;;;;;;;18.77;9.48;;;-2.70;99.90;;;;;;5034930;28;20033;-69
2021/12/22 11:49:55;;;;;;;20.38;11.55;;;-2.70;99.90;;;;;;5033920;28;20138;-69
2021/12/22 11:52:30;;;;;;;13.32;8.43;;;-2.60;99.90;;;;;;5030846;28;20045;-69
2021/12/22 11:55:12;;;;;;;14.35;9.00;;;-2.60;99.90;;;;;;5036303;28;20579;-68
2021/12/22 11:57:38;;;;;;;16.05;9.30;;;-2.60;99.90;;;;;;5036201;28;20072;-70
2021/12/22 12:00:34;;;;;;;24.40;11.00;;;-2.60;99.90;;;;;;5035584;28;20044;-69
2021/12/22 12:03:20;;;;;;;15.82;9.27;;;-2.60;99.90;;;;;;5038035;28;20127;-69
2021/12/22 12:06:09;;;;;;;12.13;8.48;;;-2.60;99.90;;;;;;5044510;28;20115;-69
2021/12/22 12:08:38;;;;;;;15.07;9.27;;;-2.70;99.90;;;;;;5026318;28;20061;-70
2021/12/22 12:11:08;;;;;;;15.30;10.50;;;-2.60;99.90;;;;;;5031157;28;20036;-70
2021/12/22 12:13:40;;;;;;;13.73;7.25;;;-2.60;99.90;;;;;;5030908;28;20051;-69
2021/12/22 12:21:58;;;;;;;15.90;9.43;;;-2.50;99.90;;;;;;5031675;28;20511;-69
2021/12/22 12:24:44;;;;;;;20.42;11.90;;;-2.50;99.90;;;;;;5036214;28;20048;-69
2021/12/22 12:27:28;;;;;;;14.15;9.98;;;-2.50;99.90;;;;;;5032826;28;20038;-69
2021/12/22 12:29:54;;;;;;;20.58;12.35;;;-2.40;99.90;;;;;;5029463;28;20047;-69
2021/12/22 12:32:38;;;;;;;23.05;11.32;;;-2.40;99.90;;;;;;5028889;28;20702;-69
2021/12/22 12:35:19;;;;;;;19.25;10.27;;;-2.40;99.90;;;;;;5034733;28;20846;-69
2021/12/22 12:38:06;;;;;;;20.92;9.70;;;-2.50;99.90;;;;;;5034529;28;20029;-69
2021/12/22 12:41:06;;;;;;;14.65;9.60;;;-2.40;99.90;;;;;;5030975;28;20055;-69
2021/12/22 12:43:56;;;;;;;20.20;11.43;;;-2.40;99.90;;;;;;5038181;28;20178;-69
2021/12/22 12:48:54;;;;;;;15.10;9.48;;;-2.40;99.90;;;;;;5036024;28;20041;-69
2021/12/22 12:51:32;;;;;;;16.80;8.95;;;-2.40;99.90;;;;;;5038082;28;20029;-69
2021/12/22 12:54:20;;;;;;;;;;;-2.40;99.90;;;;;;5038161;28;20021;-69
2021/12/22 12:56:47;;;;;;;19.27;9.27;;;-2.30;99.90;;;;;;5033235;28;19985;-69
2021/12/22 12:59:18;;;;;;;13.65;8.65;;;-2.30;99.90;;;;;;5039774;28;20057;-69
2021/12/22 13:01:47;;;;;;;18.30;10.57;;;-2.30;99.90;;;;;;5037435;28;20037;-69
2021/12/22 13:04:25;;;;;;;15.18;9.05;;;-2.40;99.90;;;;;;5041752;28;20032;-69
2021/12/22 13:07:06;;;;;;;21.88;12.00;;;-2.40;99.90;;;;;;5046954;28;20126;-69
2021/12/22 13:09:50;;;;;;;16.98;10.15;;;-2.40;99.90;;;;;;5036811;28;20796;-69
2021/12/22 13:17:55;;;;;;;27.27;12.38;;;-2.50;99.90;;;;;;5038108;28;20041;-69